Time;durP1;ratioP1;P1;durP2;ratioP2;P2;SDS_P1;SDS_P2;PMS_P1;PMS_P2;Temp;Humidity;BMP_temperature;BMP_pressure;BME280_temperature;BME280_humidity;BME280_pressure;Samples;Min_cycle;Max_cycle;Signal;HPM_P1;HPM_P2
2021/06/14 00:00:21;;;;;;;10.38;4.60;;;10.50;99.90;;;;;;5043552;28;20221;-74
2021/06/14 00:02:48;;;;;;;10.10;4.72;;;10.50;99.90;;;;;;5041599;28;20247;-74
2021/06/14 00:05:19;;;;;;;13.40;4.57;;;10.40;99.90;;;;;;5043066;28;20240;-74
2021/06/14 00:07:45;;;;;;;17.02;4.75;;;10.40;99.90;;;;;;5043598;28;20316;-73
2021/06/14 00:10:13;;;;;;;18.20;6.68;;;10.40;99.90;;;;;;5043953;28;20293;-73
2021/06/14 00:12:39;;;;;;;18.85;6.15;;;10.50;99.90;;;;;;5043641;28;20190;-73
2021/06/14 00:15:07;;;;;;;16.42;5.82;;;10.60;99.90;;;;;;5043148;28;20205;-73
2021/06/14 00:17:32;;;;;;;14.25;5.63;;;10.60;99.90;;;;;;5043442;28;20792;-74
2021/06/14 00:19:58;;;;;;;12.85;5.85;;;10.50;99.90;;;;;;5044867;28;20201;-74
2021/06/14 00:22:24;;;;;;;15.77;5.95;;;10.50;99.90;;;;;;5045285;28;20193;-73
2021/06/14 00:24:50;;;;;;;24.52;6.15;;;10.40;99.90;;;;;;5043008;28;20292;-73
2021/06/14 00:27:16;;;;;;;15.25;5.75;;;10.40;99.90;;;;;;5043291;28;20201;-74
2021/06/14 00:29:42;;;;;;;14.30;6.35;;;10.40;99.90;;;;;;5045697;28;20648;-74
2021/06/14 00:32:08;;;;;;;23.83;6.93;;;10.40;99.90;;;;;;5044613;28;20633;-73
2021/06/14 00:34:34;;;;;;;17.08;7.00;;;10.30;99.90;;;;;;5043680;28;20205;-74
2021/06/14 00:36:59;;;;;;;16.75;7.13;;;10.30;99.90;;;;;;5042630;28;20198;-74
2021/06/14 00:39:25;;;;;;;20.60;7.20;;;10.30;99.90;;;;;;5027407;28;20583;-74
2021/06/14 00:41:51;;;;;;;22.17;7.88;;;10.20;99.90;;;;;;5026692;28;20224;-74
2021/06/14 00:44:16;;;;;;;23.13;7.88;;;10.10;99.90;;;;;;5044001;28;20546;-74
2021/06/14 00:46:42;;;;;;;25.65;7.78;;;10.10;99.90;;;;;;5043873;28;20197;-74
2021/06/14 00:49:08;;;;;;;19.98;8.00;;;10.10;99.90;;;;;;5044296;28;20300;-73
2021/06/14 00:51:34;;;;;;;19.73;7.45;;;10.10;99.90;;;;;;5025810;28;20694;-74
2021/06/14 00:54:01;;;;;;;23.00;7.55;;;10.10;99.90;;;;;;5020772;28;20747;-74
2021/06/14 00:56:27;;;;;;;28.30;7.47;;;10.10;99.90;;;;;;5040870;28;20194;-73
2021/06/14 00:58:53;;;;;;;21.88;8.07;;;10.10;99.90;;;;;;5038575;28;20284;-74
2021/06/14 01:01:18;;;;;;;26.88;7.30;;;10.00;99.90;;;;;;5042044;28;20288;-76
2021/06/14 01:03:45;;;;;;;24.65;7.68;;;10.00;99.90;;;;;;5034232;28;20201;-75
2021/06/14 01:06:13;;;;;;;26.63;8.38;;;10.00;99.90;;;;;;5019357;28;20202;-75
2021/06/14 01:08:41;;;;;;;28.02;8.70;;;10.00;99.90;;;;;;5016354;28;20225;-75
2021/06/14 01:11:18;;;;;;;26.52;9.15;;;10.00;99.90;;;;;;5022681;28;20207;-75
2021/06/14 01:14:02;;;;;;;24.25;8.65;;;10.00;99.90;;;;;;5040311;28;20186;-75
2021/06/14 01:16:51;;;;;;;21.20;7.20;;;9.90;99.90;;;;;;5019297;28;20685;-75
2021/06/14 01:19:55;;;;;;;25.95;7.75;;;10.00;99.90;;;;;;5020698;28;20620;-75
2021/06/14 01:22:29;;;;;;;17.42;7.40;;;9.90;99.90;;;;;;5037110;28;20224;-76
2021/06/14 01:25:28;;;;;;;22.77;7.45;;;9.90;99.90;;;;;;5020954;28;20229;-76
2021/06/14 01:27:56;;;;;;;23.23;7.55;;;9.80;99.90;;;;;;5009139;28;20218;-75
2021/06/14 01:30:27;;;;;;;20.00;7.18;;;9.80;99.90;;;;;;5040781;28;20663;-75
2021/06/14 01:32:53;;;;;;;15.50;6.50;;;9.80;99.90;;;;;;5039035;28;20189;-76
2021/06/14 01:35:32;;;;;;;23.92;7.68;;;9.80;99.90;;;;;;5042979;28;20200;-76
2021/06/14 01:38:00;;;;;;;24.58;8.18;;;9.80;99.90;;;;;;5023025;28;20200;-75
2021/06/14 01:40:27;;;;;;;33.42;8.00;;;9.80;99.90;;;;;;5040773;28;20712;-75
2021/06/14 01:42:58;;;;;;;23.77;8.23;;;9.80;99.90;;;;;;5039687;28;20279;-74
2021/06/14 01:45:26;;;;;;;24.33;7.72;;;9.80;99.90;;;;;;5038969;28;20623;-75
2021/06/14 01:47:53;;;;;;;20.33;7.35;;;9.80;99.90;;;;;;5041371;28;20292;-76
2021/06/14 01:50:21;;;;;;;20.73;7.40;;;9.80;99.90;;;;;;5021858;28;20223;-76
2021/06/14 01:52:47;;;;;;;27.38;7.15;;;9.80;99.90;;;;;;5042312;28;20245;-75
2021/06/14 01:55:18;;;;;;;16.40;6.97;;;9.80;99.90;;;;;;5040159;28;20193;-75
2021/06/14 01:57:44;;;;;;;24.02;7.70;;;9.80;99.90;;;;;;5021434;28;20201;-76
2021/06/14 02:00:10;;;;;;;22.90;7.35;;;9.80;99.90;;;;;;5039770;28;20208;-76
2021/06/14 02:02:38;;;;;;;23.25;8.20;;;9.90;99.90;;;;;;5035314;28;20592;-75
2021/06/14 02:05:05;;;;;;;30.95;8.18;;;10.00;99.90;;;;;;5037748;28;20630;-75
2021/06/14 02:07:32;;;;;;;32.55;8.00;;;10.10;99.90;;;;;;5035779;28;20201;-76
2021/06/14 02:09:59;;;;;;;25.88;8.00;;;10.20;99.90;;;;;;5020565;28;20224;-75
2021/06/14 02:12:26;;;;;;;23.92;7.60;;;10.20;99.90;;;;;;5038750;28;20858;-75
2021/06/14 02:14:54;;;;;;;21.52;8.30;;;10.20;99.90;;;;;;5018868;28;20590;-75
2021/06/14 02:17:22;;;;;;;27.35;7.78;;;10.30;99.90;;;;;;5039121;28;20274;-75
2021/06/14 02:19:49;;;;;;;25.65;7.93;;;10.30;99.90;;;;;;5037482;28;20201;-75
2021/06/14 02:22:17;;;;;;;21.33;7.43;;;10.30;99.90;;;;;;5034511;28;20268;-75
2021/06/14 02:24:42;;;;;;;21.63;6.95;;;10.30;99.90;;;;;;5020007;28;20197;-76
2021/06/14 02:27:10;;;;;;;21.85;8.02;;;10.20;99.90;;;;;;5039290;28;20197;-76
2021/06/14 02:29:36;;;;;;;27.45;7.75;;;10.20;99.90;;;;;;5017050;28;20189;-75
2021/06/14 02:32:02;;;;;;;20.65;7.72;;;10.30;99.90;;;;;;5037646;28;20291;-76
2021/06/14 02:34:28;;;;;;;26.23;7.20;;;10.20;99.90;;;;;;5015826;28;20664;-76
2021/06/14 02:36:55;;;;;;;26.73;7.93;;;10.20;99.90;;;;;;5038134;28;20208;-75
2021/06/14 02:39:26;;;;;;;30.35;9.20;;;10.20;99.90;;;;;;5020832;28;20201;-75
2021/06/14 02:41:52;;;;;;;31.05;8.40;;;10.20;99.90;;;;;;5018677;28;20584;-75
2021/06/14 02:44:21;;;;;;;26.17;7.70;;;10.20;99.90;;;;;;5020681;28;20205;-76
2021/06/14 02:46:47;;;;;;;24.90;7.53;;;10.20;99.90;;;;;;5039907;28;20605;-76
2021/06/14 02:49:15;;;;;;;19.70;7.30;;;10.20;99.90;;;;;;5017550;28;20205;-75
2021/06/14 02:51:42;;;;;;;27.88;7.53;;;10.20;99.90;;;;;;5019070;28;20569;-75
2021/06/14 02:54:12;;;;;;;29.75;8.07;;;10.20;99.90;;;;;;5039742;28;20275;-75
2021/06/14 02:56:40;;;;;;;28.70;8.75;;;10.30;99.90;;;;;;5035986;28;20393;-76
2021/06/14 02:59:11;;;;;;;25.73;7.95;;;10.20;99.90;;;;;;5034989;28;20201;-74
2021/06/14 03:01:38;;;;;;;31.48;8.10;;;10.30;99.90;;;;;;5039454;28;20200;-76
2021/06/14 03:04:05;;;;;;;23.52;7.80;;;10.40;99.90;;;;;;5016905;28;20226;-76
2021/06/14 03:06:32;;;;;;;20.98;7.45;;;10.40;99.90;;;;;;5016749;28;20206;-75
2021/06/14 03:08:59;;;;;;;22.60;7.72;;;10.50;99.90;;;;;;5015962;28;20240;-75
2021/06/14 03:11:29;;;;;;;30.98;7.97;;;10.60;99.90;;;;;;5017706;28;20198;-75
2021/06/14 03:13:57;;;;;;;30.65;7.32;;;10.70;99.90;;;;;;5016277;28;20187;-76
2021/06/14 03:16:24;;;;;;;25.92;8.18;;;10.90;99.90;;;;;;5017381;28;20636;-76
2021/06/14 03:18:52;;;;;;;24.58;8.02;;;10.90;99.90;;;;;;5015708;28;20688;-75
2021/06/14 03:21:21;;;;;;;21.40;6.53;;;10.90;99.90;;;;;;5012270;28;20739;-75
2021/06/14 03:23:51;;;;;;;19.05;7.22;;;11.00;99.90;;;;;;5017958;28;20343;-77
2021/06/14 03:26:19;;;;;;;28.25;7.35;;;11.00;99.90;;;;;;5019915;28;20721;-75
2021/06/14 03:28:46;;;;;;;16.73;6.68;;;11.10;99.90;;;;;;5014529;28;20283;-75
2021/06/14 03:31:15;;;;;;;20.98;6.85;;;11.30;99.90;;;;;;5018912;28;20425;-75
2021/06/14 03:33:44;;;;;;;21.80;6.82;;;11.40;99.90;;;;;;5016441;28;20247;-75
2021/06/14 03:36:12;;;;;;;26.25;7.13;;;11.50;99.90;;;;;;5013717;28;20234;-75
2021/06/14 03:38:40;;;;;;;27.25;7.32;;;11.50;99.90;;;;;;5018157;28;20229;-75
2021/06/14 03:41:07;;;;;;;19.85;7.13;;;11.60;99.90;;;;;;5017410;28;20198;-75
2021/06/14 03:43:33;;;;;;;26.95;6.72;;;11.60;99.90;;;;;;5017876;28;20209;-76
2021/06/14 03:46:00;;;;;;;24.67;6.25;;;11.70;99.90;;;;;;5021266;28;20194;-76
2021/06/14 03:48:26;;;;;;;20.92;6.38;;;11.90;99.90;;;;;;5019355;28;20212;-76
2021/06/14 03:50:54;;;;;;;26.08;6.40;;;12.10;99.90;;;;;;5018405;28;20202;-76
2021/06/14 03:53:27;;;;;;;22.75;6.22;;;12.10;99.90;;;;;;5022640;28;20561;-75
2021/06/14 03:55:53;;;;;;;19.48;6.05;;;12.20;99.90;;;;;;5019251;28;20277;-75
2021/06/14 03:58:19;;;;;;;22.45;5.78;;;12.30;99.90;;;;;;5019765;28;20289;-76
2021/06/14 04:00:44;;;;;;;19.10;5.82;;;12.40;99.90;;;;;;5013698;28;20207;-75
2021/06/14 04:03:10;;;;;;;21.25;5.22;;;12.50;99.90;;;;;;5020643;28;20236;-75
2021/06/14 04:05:35;;;;;;;15.63;5.28;;;12.60;99.90;;;;;;5019094;28;20237;-75
2021/06/14 04:08:01;;;;;;;21.70;5.00;;;12.60;99.90;;;;;;5022355;28;20629;-75
2021/06/14 04:10:27;;;;;;;16.63;4.97;;;12.70;99.90;;;;;;5021025;28;20191;-75
2021/06/14 04:12:53;;;;;;;17.13;5.30;;;12.70;99.90;;;;;;5021986;28;20250;-75
2021/06/14 04:15:18;;;;;;;13.70;5.10;;;12.80;99.90;;;;;;5020817;28;20198;-76
2021/06/14 04:17:44;;;;;;;20.42;5.72;;;12.80;99.90;;;;;;5022295;28;20613;-75
2021/06/14 04:20:10;;;;;;;10.02;4.25;;;13.00;99.90;;;;;;5020127;28;20195;-75
2021/06/14 04:22:36;;;;;;;18.35;5.13;;;13.20;99.90;;;;;;5022477;28;20284;-75
2021/06/14 04:25:03;;;;;;;13.70;4.82;;;13.40;99.90;;;;;;5021969;28;20202;-75
2021/06/14 04:27:29;;;;;;;13.07;4.50;;;13.60;99.90;;;;;;5025540;28;20213;-75
2021/06/14 04:29:55;;;;;;;15.00;4.53;;;13.90;99.90;;;;;;5023936;28;20679;-75
2021/06/14 04:32:20;;;;;;;13.13;3.65;;;14.10;99.90;;;;;;5025571;28;20202;-75
2021/06/14 04:34:46;;;;;;;12.63;4.10;;;14.40;99.90;;;;;;5024961;28;20719;-76
2021/06/14 04:37:12;;;;;;;17.50;4.45;;;14.70;99.90;;;;;;5026449;28;20190;-75
2021/06/14 04:39:37;;;;;;;15.05;4.05;;;14.90;99.90;;;;;;5024268;28;20298;-75
2021/06/14 04:42:04;;;;;;;14.75;3.30;;;15.00;99.90;;;;;;5027419;28;20205;-75
2021/06/14 04:44:32;;;;;;;10.20;3.45;;;15.00;99.90;;;;;;5023180;28;20600;-76
2021/06/14 04:46:57;;;;;;;13.48;3.70;;;15.00;99.90;;;;;;5023763;28;20190;-75
2021/06/14 04:49:23;;;;;;;13.10;3.92;;;14.90;99.90;;;;;;5023926;28;20218;-75
2021/06/14 04:51:49;;;;;;;14.55;3.80;;;15.00;99.90;;;;;;5024408;28;20301;-75
2021/06/14 04:54:15;;;;;;;14.88;3.83;;;15.00;99.90;;;;;;5014161;28;20512;-75
2021/06/14 04:56:40;;;;;;;15.02;3.95;;;15.10;99.90;;;;;;5022761;28;20202;-75
2021/06/14 04:59:06;;;;;;;10.23;3.58;;;15.20;99.90;;;;;;5025468;28;20198;-74
2021/06/14 05:01:32;;;;;;;21.17;5.05;;;15.30;99.90;;;;;;5021826;28;20202;-75
2021/06/14 05:03:58;;;;;;;10.85;3.58;;;15.40;99.90;;;;;;5012363;28;20218;-75
2021/06/14 05:06:24;;;;;;;10.32;3.20;;;15.50;99.90;;;;;;5027292;28;20209;-75
2021/06/14 05:08:49;;;;;;;7.93;3.28;;;15.60;99.90;;;;;;5046510;28;20223;-75
2021/06/14 05:11:15;;;;;;;8.90;3.42;;;15.70;99.90;;;;;;5043601;28;20194;-75
2021/06/14 05:13:41;;;;;;;10.93;3.00;;;15.80;99.90;;;;;;5044049;28;20222;-75
2021/06/14 05:16:06;;;;;;;9.55;3.25;;;16.00;99.90;;;;;;5038579;28;20194;-75
2021/06/14 05:18:32;;;;;;;9.23;2.90;;;16.20;99.90;;;;;;5042672;28;20671;-75
2021/06/14 05:20:58;;;;;;;11.68;3.38;;;16.30;99.90;;;;;;5024485;28;20197;-75
2021/06/14 05:23:24;;;;;;;10.18;3.45;;;16.30;99.90;;;;;;5021780;28;20205;-75
2021/06/14 05:25:49;;;;;;;8.85;3.05;;;16.20;99.90;;;;;;5041787;28;20264;-74
2021/06/14 05:28:15;;;;;;;9.10;3.10;;;16.20;99.90;;;;;;5041206;28;20201;-75
2021/06/14 05:30:41;;;;;;;8.18;3.00;;;16.30;99.90;;;;;;5037917;28;20197;-75
2021/06/14 05:33:07;;;;;;;12.32;3.17;;;16.30;99.90;;;;;;5040844;28;20217;-75
2021/06/14 05:35:32;;;;;;;8.48;3.42;;;16.40;99.90;;;;;;5036339;28;20289;-75
2021/06/14 05:37:58;;;;;;;9.00;3.42;;;16.50;99.90;;;;;;5019441;28;20318;-75
2021/06/14 05:40:24;;;;;;;8.35;2.92;;;16.50;99.90;;;;;;5041919;28;20198;-76
2021/06/14 05:42:50;;;;;;;6.47;2.92;;;16.70;99.90;;;;;;5019749;28;20598;-75
2021/06/14 05:45:16;;;;;;;8.50;3.08;;;16.90;99.90;;;;;;5017741;28;20202;-75
2021/06/14 05:47:42;;;;;;;8.07;3.20;;;16.90;99.90;;;;;;5026578;28;20213;-75
2021/06/14 05:50:08;;;;;;;9.32;3.40;;;17.00;99.90;;;;;;5022725;28;20270;-75
2021/06/14 05:52:34;;;;;;;8.10;3.10;;;16.90;99.90;;;;;;5041260;28;20251;-76
2021/06/14 05:55:00;;;;;;;12.50;3.17;;;17.00;99.90;;;;;;5040138;28;20186;-75
2021/06/14 05:57:26;;;;;;;7.45;3.03;;;16.90;99.90;;;;;;5041621;28;20211;-75
2021/06/14 05:59:52;;;;;;;8.68;3.03;;;16.90;99.90;;;;;;5045733;28;20208;-75
2021/06/14 06:02:18;;;;;;;7.53;2.72;;;17.00;99.90;;;;;;5042521;28;20671;-75
2021/06/14 06:04:43;;;;;;;7.28;2.63;;;17.00;99.90;;;;;;5042626;28;20228;-75
2021/06/14 06:07:09;;;;;;;8.50;2.33;;;17.30;99.90;;;;;;5025645;28;20193;-75
2021/06/14 06:09:35;;;;;;;10.07;2.95;;;17.50;99.90;;;;;;5037937;28;20234;-75
2021/06/14 06:12:00;;;;;;;6.60;2.30;;;17.60;99.90;;;;;;5020024;28;20194;-75
2021/06/14 06:14:26;;;;;;;5.78;2.22;;;17.50;99.90;;;;;;5040641;28;20190;-75
2021/06/14 06:16:52;;;;;;;4.97;2.33;;;17.60;99.90;;;;;;5025377;28;20197;-76
2021/06/14 06:19:19;;;;;;;6.68;2.50;;;17.50;99.90;;;;;;5021538;28;20229;-75
2021/06/14 06:21:45;;;;;;;8.73;2.47;;;17.50;99.90;;;;;;5042194;28;20213;-75
2021/06/14 06:24:11;;;;;;;7.07;2.40;;;17.50;99.90;;;;;;5026762;28;20205;-75
2021/06/14 06:26:36;;;;;;;9.73;2.70;;;17.60;99.90;;;;;;5025134;28;20255;-75
2021/06/14 06:29:03;;;;;;;7.95;2.80;;;17.60;99.90;;;;;;5024617;28;20599;-75
2021/06/14 06:31:30;;;;;;;7.43;3.05;;;17.60;99.90;;;;;;5038504;28;20210;-76
2021/06/14 06:33:57;;;;;;;6.88;2.90;;;17.70;99.90;;;;;;5025374;28;20189;-75
2021/06/14 06:36:23;;;;;;;8.43;3.15;;;17.80;99.90;;;;;;5043547;28;20205;-75
2021/06/14 06:38:49;;;;;;;6.57;2.90;;;17.90;99.90;;;;;;5022910;28;20194;-75
2021/06/14 06:41:14;;;;;;;9.25;3.35;;;17.90;99.90;;;;;;5034754;28;20715;-75
2021/06/14 06:43:40;;;;;;;10.02;2.80;;;18.00;99.90;;;;;;5027390;28;20229;-76
2021/06/14 06:46:06;;;;;;;6.72;3.22;;;17.90;99.90;;;;;;5044492;28;20197;-75
2021/06/14 06:48:32;;;;;;;6.95;2.92;;;17.80;99.90;;;;;;5022584;28;20687;-76
2021/06/14 06:50:58;;;;;;;6.30;2.80;;;17.60;99.90;;;;;;5019738;28;20190;-76
2021/06/14 06:53:28;;;;;;;6.55;3.10;;;17.30;99.90;;;;;;5017484;28;20533;-75
2021/06/14 06:55:55;;;;;;;4.78;2.88;;;17.00;99.90;;;;;;5035886;28;20244;-75
2021/06/14 06:58:21;;;;;;;7.53;3.50;;;16.70;99.90;;;;;;5043557;28;20201;-75
2021/06/14 07:00:51;;;;;;;10.57;3.28;;;16.60;99.90;;;;;;5024390;28;20878;-75
2021/06/14 07:03:17;;;;;;;11.18;4.00;;;16.50;99.90;;;;;;5025222;28;20224;-75
2021/06/14 07:05:43;;;;;;;7.57;3.47;;;16.40;99.90;;;;;;5039227;28;20310;-75
2021/06/14 07:08:10;;;;;;;12.18;3.50;;;16.30;99.90;;;;;;5039298;28;20532;-75
2021/06/14 07:10:40;;;;;;;8.05;3.47;;;16.30;99.90;;;;;;5040376;28;20553;-75
2021/06/14 07:13:06;;;;;;;8.35;3.15;;;16.20;99.90;;;;;;5039550;28;20228;-75
2021/06/14 07:15:33;;;;;;;11.10;3.30;;;16.10;99.90;;;;;;5021709;28;20296;-75
2021/06/14 07:17:59;;;;;;;4.78;3.05;;;16.10;99.90;;;;;;5040120;28;20651;-75
2021/06/14 07:20:25;;;;;;;6.28;2.72;;;16.20;99.90;;;;;;5038043;28;20227;-75
2021/06/14 07:22:51;;;;;;;5.07;2.70;;;16.30;99.90;;;;;;5038047;28;20220;-75
2021/06/14 07:25:17;;;;;;;10.15;2.70;;;16.40;99.90;;;;;;5040151;28;20292;-75
2021/06/14 07:27:43;;;;;;;4.30;2.80;;;16.50;99.90;;;;;;5022946;28;20609;-75
2021/06/14 07:30:11;;;;;;;6.05;2.80;;;16.60;99.90;;;;;;5042136;28;20194;-75
2021/06/14 07:32:38;;;;;;;4.75;2.70;;;16.60;99.90;;;;;;5021079;28;20207;-75
2021/06/14 07:35:04;;;;;;;5.82;2.70;;;16.60;99.90;;;;;;5020196;28;20668;-75
2021/06/14 07:37:30;;;;;;;6.72;3.50;;;16.70;99.90;;;;;;5043845;28;20651;-74
2021/06/14 07:39:56;;;;;;;6.63;2.78;;;16.70;99.90;;;;;;5035304;28;20210;-74
2021/06/14 07:42:22;;;;;;;7.75;3.08;;;16.60;99.90;;;;;;5021793;28;20217;-75
2021/06/14 07:44:48;;;;;;;7.80;3.17;;;16.60;99.90;;;;;;5037852;28;20201;-74
2021/06/14 07:47:13;;;;;;;7.07;2.92;;;16.50;99.90;;;;;;5037348;28;20264;-74
2021/06/14 07:49:40;;;;;;;11.40;3.17;;;16.50;99.90;;;;;;5020637;28;20236;-75
2021/06/14 07:52:08;;;;;;;7.65;2.95;;;16.70;99.90;;;;;;5018632;28;20229;-74
2021/06/14 07:54:34;;;;;;;5.40;2.80;;;16.90;99.90;;;;;;5034412;28;20555;-75
2021/06/14 07:57:00;;;;;;;7.00;2.83;;;17.10;99.90;;;;;;5042349;28;20241;-75
2021/06/14 07:59:25;;;;;;;5.57;2.63;;;17.00;99.90;;;;;;5023127;28;20662;-75
2021/06/14 08:01:51;;;;;;;6.82;2.90;;;17.00;99.90;;;;;;5042209;28;20198;-75
2021/06/14 08:04:17;;;;;;;5.80;2.70;;;17.00;99.90;;;;;;5045788;28;20221;-75
2021/06/14 08:06:43;;;;;;;7.13;2.72;;;17.10;99.90;;;;;;5028524;28;20980;-74
2021/06/14 08:09:13;;;;;;;6.68;2.95;;;17.10;99.90;;;;;;5043672;28;20293;-74
2021/06/14 08:11:43;;;;;;;7.05;2.90;;;16.90;99.90;;;;;;5028126;28;20591;-74
2021/06/14 08:14:08;;;;;;;4.75;2.55;;;16.70;99.90;;;;;;5044193;28;20715;-74
2021/06/14 08:16:44;;;;;;;9.05;3.30;;;16.60;99.90;;;;;;5043077;28;20393;-75
2021/06/14 08:19:14;;;;;;;8.45;3.20;;;16.40;99.90;;;;;;5043899;28;20215;-75
2021/06/14 08:21:47;;;;;;;7.78;2.85;;;16.40;99.90;;;;;;5045370;28;20315;-75
2021/06/14 08:26:57;;;;;;;9.80;3.28;;;16.60;99.90;;;;;;5046085;28;20273;-75
2021/06/14 08:29:22;;;;;;;7.82;3.17;;;16.60;99.90;;;;;;5045131;28;20761;-75
2021/06/14 08:31:48;;;;;;;7.35;3.05;;;16.60;99.90;;;;;;5025637;28;20220;-72
2021/06/14 08:34:14;;;;;;;5.57;3.03;;;16.60;99.90;;;;;;5039830;28;20212;-73
2021/06/14 08:36:41;;;;;;;8.70;3.17;;;16.80;99.90;;;;;;5046449;28;20637;-74
2021/06/14 08:39:11;;;;;;;7.85;3.10;;;17.00;99.90;;;;;;5044224;28;20679;-75
2021/06/14 08:41:40;;;;;;;6.97;3.08;;;17.00;99.90;;;;;;5027241;28;20287;-75
2021/06/14 08:44:07;;;;;;;7.47;3.17;;;16.90;99.90;;;;;;5041323;28;20212;-75
2021/06/14 08:46:34;;;;;;;8.25;2.75;;;16.80;99.90;;;;;;5045444;28;20228;-75
2021/06/14 08:49:00;;;;;;;7.15;3.10;;;16.70;99.90;;;;;;5019897;28;20213;-74
2021/06/14 08:51:26;;;;;;;7.32;3.00;;;16.80;99.90;;;;;;5041373;28;20240;-74
2021/06/14 08:53:52;;;;;;;5.50;3.15;;;16.80;99.90;;;;;;5024080;28;20193;-75
2021/06/14 08:56:20;;;;;;;8.35;3.00;;;17.00;99.90;;;;;;5020789;28;20750;-74
2021/06/14 08:58:48;;;;;;;8.27;3.22;;;17.10;99.90;;;;;;5036626;28;20197;-75
2021/06/14 09:01:14;;;;;;;4.95;2.88;;;17.20;99.90;;;;;;5023803;28;20236;-75
2021/06/14 09:03:39;;;;;;;8.50;3.10;;;17.40;99.90;;;;;;5026295;28;20193;-74
2021/06/14 09:06:05;;;;;;;7.40;2.75;;;17.60;99.90;;;;;;5024721;28;20240;-75
2021/06/14 09:08:31;;;;;;;6.18;3.10;;;18.10;99.90;;;;;;5040149;28;21209;-75
2021/06/14 09:10:56;;;;;;;8.85;2.80;;;18.50;99.90;;;;;;5039780;28;20194;-75
2021/06/14 09:13:25;;;;;;;6.63;2.72;;;18.70;99.90;;;;;;5040640;28;20276;-75
2021/06/14 09:16:03;;;;;;;5.10;2.75;;;19.00;99.90;;;;;;5040006;28;20233;-74
2021/06/14 09:18:28;;;;;;;7.97;2.60;;;19.00;99.90;;;;;;5037422;28;20202;-74
2021/06/14 09:21:03;;;;;;;5.55;2.80;;;19.10;99.90;;;;;;5044882;28;20651;-75
2021/06/14 09:23:43;;;;;;;4.90;2.58;;;19.40;99.90;;;;;;5041878;28;20666;-74
2021/06/14 09:26:23;;;;;;;6.60;3.25;;;19.60;99.90;;;;;;5043220;28;20204;-75
2021/06/14 09:28:51;;;;;;;11.07;2.72;;;19.40;99.90;;;;;;5045002;28;20619;-75
2021/06/14 09:31:17;;;;;;;6.68;2.72;;;19.10;99.90;;;;;;5022362;28;20748;-75
2021/06/14 09:33:47;;;;;;;9.98;2.80;;;19.00;99.90;;;;;;5043607;28;20304;-74
2021/06/14 09:36:14;;;;;;;12.43;2.88;;;18.60;99.90;;;;;;5022712;28;20293;-74
2021/06/14 09:38:40;;;;;;;6.47;2.90;;;18.40;99.90;;;;;;5043718;28;20205;-75
2021/06/14 09:41:18;;;;;;;7.43;2.70;;;18.50;99.90;;;;;;5043138;28;20212;-74
2021/06/14 09:43:46;;;;;;;10.23;2.80;;;18.50;99.90;;;;;;5025155;28;20255;-74
2021/06/14 09:46:26;;;;;;;7.78;3.20;;;18.70;99.90;;;;;;5039029;28;20201;-75
2021/06/14 09:48:52;;;;;;;7.88;2.67;;;18.80;99.90;;;;;;5038279;28;20763;-74
2021/06/14 09:51:18;;;;;;;9.43;2.58;;;18.90;99.90;;;;;;5037781;28;20192;-74
2021/06/14 09:53:50;;;;;;;5.38;2.72;;;19.10;99.90;;;;;;5044860;28;20182;-75
2021/06/14 09:56:21;;;;;;;7.05;2.55;;;19.10;99.90;;;;;;5015483;28;20711;-74
2021/06/14 09:58:50;;;;;;;8.23;2.70;;;18.70;99.90;;;;;;5037276;28;20234;-74
2021/06/14 10:01:30;;;;;;;8.90;3.08;;;18.10;99.90;;;;;;5014890;28;20197;-74
2021/06/14 10:03:58;;;;;;;8.05;2.97;;;18.10;99.90;;;;;;5035882;28;20343;-74
2021/06/14 10:06:32;;;;;;;8.73;2.90;;;18.20;99.90;;;;;;5037642;28;20933;-74
2021/06/14 10:08:59;;;;;;;5.05;2.60;;;18.20;99.90;;;;;;5036271;28;20244;-74
2021/06/14 10:11:33;;;;;;;5.25;2.75;;;18.60;99.90;;;;;;5019848;28;20205;-74
2021/06/14 10:14:10;;;;;;;5.45;3.00;;;19.00;99.90;;;;;;5036821;28;20570;-74
2021/06/14 10:16:37;;;;;;;5.47;2.58;;;19.40;99.90;;;;;;5037026;28;20191;-74
2021/06/14 10:19:08;;;;;;;3.85;2.60;;;19.30;99.90;;;;;;5036368;28;20682;-74
2021/06/14 10:21:35;;;;;;;9.63;2.85;;;19.30;99.90;;;;;;5018906;28;20235;-74
2021/06/14 10:24:10;;;;;;;5.32;2.60;;;18.90;99.90;;;;;;5034945;28;20194;-74
2021/06/14 10:26:44;;;;;;;8.45;2.60;;;18.70;99.90;;;;;;5036387;28;20197;-74
2021/06/14 10:29:12;;;;;;;4.63;2.80;;;18.70;99.90;;;;;;5017166;28;20217;-74
2021/06/14 10:31:43;;;;;;;8.80;3.08;;;18.50;99.90;;;;;;5032025;28;20355;-73
2021/06/14 10:34:11;;;;;;;5.88;3.10;;;18.40;99.90;;;;;;5029762;28;20614;-74
2021/06/14 10:36:39;;;;;;;8.07;2.75;;;18.20;99.90;;;;;;5034476;28;20243;-74
2021/06/14 10:39:05;;;;;;;7.72;2.97;;;17.90;99.90;;;;;;5037459;28;20597;-74
2021/06/14 10:41:31;;;;;;;6.55;3.08;;;17.60;99.90;;;;;;5039030;28;20285;-75
2021/06/14 10:43:57;;;;;;;6.07;2.60;;;17.40;99.90;;;;;;5035594;28;20199;-73
2021/06/14 10:46:25;;;;;;;5.32;2.83;;;17.30;99.90;;;;;;5014502;28;20243;-73
2021/06/14 10:49:00;;;;;;;8.73;2.95;;;17.10;99.90;;;;;;5016960;28;20387;-74
2021/06/14 10:51:27;;;;;;;9.95;3.15;;;16.90;99.90;;;;;;5037588;28;20572;-74
2021/06/14 10:54:11;;;;;;;10.88;3.35;;;16.90;99.90;;;;;;5016159;28;20308;-73
2021/06/14 10:56:41;;;;;;;9.15;3.90;;;16.90;99.90;;;;;;5038899;28;20201;-73
2021/06/14 10:59:09;;;;;;;6.10;2.90;;;16.70;99.90;;;;;;5037150;28;20563;-73
2021/06/14 11:01:44;;;;;;;8.35;2.95;;;16.70;99.90;;;;;;5034696;28;20229;-73
2021/06/14 11:04:21;;;;;;;9.18;2.83;;;16.60;99.90;;;;;;5038031;28;20205;-73
2021/06/14 11:06:52;;;;;;;6.47;2.72;;;16.60;99.90;;;;;;5020287;28;20290;-74
2021/06/14 11:09:18;;;;;;;8.20;3.17;;;16.50;99.90;;;;;;5037149;28;20766;-73
2021/06/14 11:11:45;;;;;;;7.32;3.17;;;16.40;99.90;;;;;;5034842;28;20198;-73
2021/06/14 11:14:11;;;;;;;6.90;3.20;;;16.40;99.90;;;;;;5033979;28;20202;-72
2021/06/14 11:16:38;;;;;;;9.70;3.67;;;16.30;99.90;;;;;;5033979;28;20229;-73
2021/06/14 11:19:06;;;;;;;11.70;3.28;;;16.30;99.90;;;;;;5016024;28;20680;-72
2021/06/14 11:21:32;;;;;;;6.63;3.28;;;16.30;99.90;;;;;;5038073;28;20216;-74
2021/06/14 11:24:10;;;;;;;4.90;2.80;;;16.30;99.90;;;;;;5014837;28;20220;-75
2021/06/14 11:26:37;;;;;;;8.15;3.22;;;16.10;99.90;;;;;;5021744;28;20197;-74
2021/06/14 11:29:14;;;;;;;10.07;2.92;;;16.00;99.90;;;;;;5010877;28;20205;-74
2021/06/14 11:31:41;;;;;;;5.85;3.28;;;16.10;99.90;;;;;;5034979;28;20193;-74
2021/06/14 11:34:17;;;;;;;8.10;3.60;;;16.10;99.90;;;;;;5035856;28;20200;-74
2021/06/14 11:36:52;;;;;;;8.32;3.70;;;16.10;99.90;;;;;;5035698;28;20738;-73
2021/06/14 11:39:20;;;;;;;6.82;3.70;;;16.00;99.90;;;;;;5032369;28;20209;-72
2021/06/14 11:41:46;;;;;;;22.77;4.13;;;15.90;99.90;;;;;;5013406;28;20362;-73
2021/06/14 11:44:19;;;;;;;11.57;4.88;;;15.80;99.90;;;;;;5035821;28;20625;-72
2021/06/14 11:46:46;;;;;;;15.82;4.90;;;15.80;99.90;;;;;;5017055;28;20645;-72
2021/06/14 11:49:12;;;;;;;8.30;4.93;;;15.80;99.90;;;;;;5009445;28;20536;-73
2021/06/14 11:51:38;;;;;;;10.02;4.55;;;15.70;99.90;;;;;;5028166;28;20205;-72
2021/06/14 11:54:06;;;;;;;10.45;4.55;;;15.60;99.90;;;;;;5013711;28;20585;-72
2021/06/14 11:56:38;;;;;;;7.50;4.32;;;15.60;99.90;;;;;;5030763;28;20194;-72
2021/06/14 11:59:06;;;;;;;8.45;4.85;;;15.60;99.90;;;;;;5035880;28;20213;-73
2021/06/14 12:01:34;;;;;;;9.63;4.90;;;15.50;99.90;;;;;;5038281;28;20224;-73
2021/06/14 12:04:06;;;;;;;8.95;4.90;;;15.40;99.90;;;;;;5032949;28;20765;-72
2021/06/14 12:06:46;;;;;;;9.82;4.85;;;15.40;99.90;;;;;;5032444;28;20229;-72
2021/06/14 12:09:17;;;;;;;8.15;4.57;;;15.40;99.90;;;;;;5036409;28;20279;-73
2021/06/14 12:11:44;;;;;;;8.00;4.82;;;15.30;99.90;;;;;;5032289;28;20643;-73
2021/06/14 12:14:12;;;;;;;7.53;5.22;;;15.30;99.90;;;;;;5012864;28;20225;-72
2021/06/14 12:16:37;;;;;;;5.90;4.13;;;15.20;99.90;;;;;;5036107;28;20194;-72
2021/06/14 12:19:03;;;;;;;7.28;4.38;;;15.20;99.90;;;;;;5033442;28;20728;-72
2021/06/14 12:21:29;;;;;;;7.57;4.30;;;15.20;99.90;;;;;;5026381;28;20202;-75
2021/06/14 12:23:55;;;;;;;6.05;4.05;;;15.20;99.90;;;;;;5034697;28;20209;-72
2021/06/14 12:26:20;;;;;;;9.55;4.35;;;15.30;99.90;;;;;;5033144;28;20277;-72
2021/06/14 12:28:46;;;;;;;9.73;4.20;;;15.30;99.90;;;;;;5032754;28;20205;-72
2021/06/14 12:31:14;;;;;;;5.38;3.38;;;15.40;99.90;;;;;;5028828;28;20194;-72
2021/06/14 12:33:42;;;;;;;8.30;3.50;;;15.50;99.90;;;;;;5019850;28;20602;-72
2021/06/14 12:36:11;;;;;;;5.70;3.60;;;15.50;99.90;;;;;;5011915;28;20209;-72
2021/06/14 12:38:37;;;;;;;5.75;3.80;;;15.40;99.90;;;;;;5042725;28;20194;-73
2021/06/14 12:41:07;;;;;;;6.85;4.13;;;15.50;99.90;;;;;;5012631;28;20210;-74
2021/06/14 12:43:36;;;;;;;6.07;4.10;;;15.50;99.90;;;;;;5042453;28;20600;-73
2021/06/14 12:46:02;;;;;;;7.32;4.30;;;15.50;99.90;;;;;;5035864;28;20252;-73
2021/06/14 12:48:28;;;;;;;6.32;3.70;;;15.40;99.90;;;;;;5043115;28;20205;-73